»·PEaware :: N8833D KDEN-KRKS

N8833D :: KDEN-KRKS

FLIGHT INFORMATION

Flight Status: Arrived
Operator: Privately registered:
United States
More flights under this callsign
Pilot: Cooper L. (8467)
Aircraft: BOEING 777-200
(B772)
More flights by this aircraft type
Origin: KDEN Denver Intl
United States
Destination: KRKS Rock Springs-Sweetwater
United States
More flights between these airports :: More routes between these airports
Route: FOOOT3
File this flight plan on PilotEdge
Remarks:
Altitude:
(Current/Filed)
32,000ft
Speed:
(Current/Filed)
450kts
Departed: 25-Nov-15 10:40 PM
Arrived: 25-Nov-15 11:34 PM
Distance/Time
Traveled:
226nm/0:54
Distance/Time
To Go:
Arrived

Flight Plot

Page will automatically refresh every two minutes.


Map Options




Map Legend


Flown Route
Filed Route
Departure Airport
Arrival Airport
Navaid (VOR, NDB)
Fix

Horizontal Profiles

Position Reports

Time Latitude Longitude Heading Altitude Ground
Speed
25-Nov-15 22:26 39.859538 -104.678406 179 5449ft 0kts
25-Nov-15 22:27 39.859538 -104.678406 179 5449ft 0kts
25-Nov-15 22:28 39.859538 -104.678406 179 5449ft 0kts
25-Nov-15 22:29 39.859605 -104.678407 179 5449ft 2kts
25-Nov-15 22:30 39.860327 -104.678246 211 5449ft 2kts
25-Nov-15 22:31 39.860695 -104.677809 254 5449ft 0kts
25-Nov-15 22:32 39.860695 -104.677809 254 5449ft 0kts
25-Nov-15 22:33 39.860524 -104.680350 266 5449ft 33kts
25-Nov-15 22:34 39.857894 -104.685085 178 5449ft 26kts
25-Nov-15 22:35 39.852132 -104.685566 228 5449ft 17kts
25-Nov-15 22:36 39.851921 -104.693851 270 5449ft 21kts
25-Nov-15 22:37 39.856516 -104.696569 1 5449ft 63kts
25-Nov-15 22:38 39.906098 -104.708236 317 7038ft 278kts
25-Nov-15 22:39 39.923587 -104.788433 271 10094ft 276kts
25-Nov-15 22:40 39.935278 -104.860293 273 10119ft 275kts
25-Nov-15 22:41 39.944119 -104.942236 265 11109ft 308kts
25-Nov-15 22:42 39.949442 -105.012846 272 12150ft 336kts
25-Nov-15 22:43 39.958837 -105.096579 271 16676ft 326kts
25-Nov-15 22:44 39.969096 -105.186354 271 20061ft 343kts
25-Nov-15 22:45 39.982506 -105.302660 271 23901ft 360kts
25-Nov-15 22:46 39.981791 -105.430743 262 26528ft 396kts
25-Nov-15 22:47 39.977422 -105.571883 263 30211ft 415kts
25-Nov-15 22:48 39.974160 -105.698111 262 32132ft 361kts
25-Nov-15 22:49 39.971496 -105.838511 263 32139ft 433kts
25-Nov-15 22:50 39.978871 -105.995560 268 32005ft 447kts
25-Nov-15 22:51 39.987389 -106.154040 268 31898ft 450kts
25-Nov-15 22:52 39.994688 -106.292289 268 31862ft 445kts
25-Nov-15 22:53 40.027141 -106.509573 288 31843ft 466kts
25-Nov-15 22:54 40.089969 -106.680199 287 31842ft 463kts
25-Nov-15 22:55 40.143716 -106.825634 286 31819ft 457kts
25-Nov-15 22:56 40.195246 -106.967313 285 31813ft 452kts
25-Nov-15 22:57 40.247875 -107.112739 285 31811ft 449kts
25-Nov-15 22:58 40.299450 -107.255944 285 31809ft 448kts
25-Nov-15 22:59 40.348916 -107.394014 285 31811ft 450kts
25-Nov-15 23:00 40.400328 -107.538248 286 31816ft 459kts
25-Nov-15 23:01 40.453389 -107.687405 286 31829ft 467kts
25-Nov-15 23:02 40.507647 -107.839612 286 31829ft 472kts
25-Nov-15 23:03 40.595573 -107.969955 317 31830ft 517kts
25-Nov-15 23:04 40.699987 -108.085437 306 30533ft 501kts
25-Nov-15 23:05 40.794589 -108.207903 306 28856ft 475kts
25-Nov-15 23:06 40.867000 -108.302926 305 27558ft 443kts
25-Nov-15 23:07 40.939762 -108.398936 305 26236ft 424kts
25-Nov-15 23:08 41.020462 -108.505753 306 24688ft 413kts
25-Nov-15 23:09 41.099370 -108.610549 306 23072ft 405kts
25-Nov-15 23:10 41.174848 -108.710508 306 21414ft 395kts
25-Nov-15 23:11 41.250068 -108.810901 306 19716ft 386kts
25-Nov-15 23:12 41.322557 -108.908120 306 18009ft 367kts
25-Nov-15 23:13 41.391018 -109.000287 306 16396ft 344kts
25-Nov-15 23:14 41.450074 -109.079964 306 14926ft 292kts
25-Nov-15 23:15 41.503441 -109.152080 305 13625ft 248kts
25-Nov-15 23:16 41.549184 -109.214693 297 12501ft 232kts
25-Nov-15 23:17 41.566548 -109.295593 277 9702ft 259kts
25-Nov-15 23:18 41.586439 -109.379314 278 8935ft 216kts
25-Nov-15 23:19 41.616062 -109.432313 31 7529ft 175kts
25-Nov-15 23:20 41.633864 -109.393192 109 7765ft 127kts
25-Nov-15 23:21 41.629993 -109.347583 150 7873ft 112kts
25-Nov-15 23:22 41.599985 -109.379224 258 9965ft 219kts
25-Nov-15 23:23 41.641847 -109.418010 51 8799ft 209kts
25-Nov-15 23:24 41.642592 -109.362269 113 8262ft 134kts
25-Nov-15 23:25 41.635625 -109.317556 113 8011ft 127kts
25-Nov-15 23:26 41.624679 -109.245846 111 9010ft 142kts
25-Nov-15 23:27 41.617508 -109.196833 115 8481ft 130kts
25-Nov-15 23:28 41.610224 -109.151361 111 7370ft 119kts
25-Nov-15 23:29 41.602273 -109.110729 114 6991ft 118kts
25-Nov-15 23:30 41.595702 -109.070500 111 6779ft 126kts
25-Nov-15 23:31 41.591916 -109.050699 107 6776ft 35kts
25-Nov-15 23:32 41.593323 -109.045576 246 6776ft 18kts
25-Nov-15 23:33 41.593382 -109.050948 283 6776ft 20kts
25-Nov-15 23:34 41.594153 -109.055299 284 6776ft 20kts
25-Nov-15 23:35 41.595430 -109.062598 282 6776ft 20kts
25-Nov-15 23:36 41.597135 -109.065451 40 6776ft 10kts
25-Nov-15 23:37 41.598810 -109.063865 12 6776ft 0kts

Navigation Log

Ident Type
Flight plan parsing failed, navigation log unavailable